Time;durP1;ratioP1;P1;durP2;ratioP2;P2;SDS_P1;SDS_P2;PMS_P1;PMS_P2;Temp;Humidity;BMP_temperature;BMP_pressure;BME280_temperature;BME280_humidity;BME280_pressure;Samples;Min_cycle;Max_cycle;Signal;HPM_P1;HPM_P2
2021/10/01 00:00:30;;;;;;;1.50;0.90;;;17.60;63.80;;;;;;5076262;28;20182;-67
2021/10/01 00:02:56;;;;;;;0.90;0.90;;;17.50;63.80;;;;;;5075277;28;20185;-67
2021/10/01 00:05:22;;;;;;;1.42;1.13;;;17.50;63.80;;;;;;5076388;28;20539;-68
2021/10/01 00:07:49;;;;;;;1.15;1.05;;;17.50;63.70;;;;;;5075990;28;20244;-67
2021/10/01 00:10:14;;;;;;;2.03;1.40;;;17.50;63.70;;;;;;5075688;28;20183;-66
2021/10/01 00:12:40;;;;;;;2.70;1.17;;;17.50;63.80;;;;;;5076206;28;20189;-66
2021/10/01 00:15:06;;;;;;;1.70;0.93;;;17.50;63.80;;;;;;5075763;28;20205;-66
2021/10/01 00:17:31;;;;;;;1.55;1.10;;;17.50;63.70;;;;;;5075256;28;20174;-66
2021/10/01 00:19:57;;;;;;;2.97;1.30;;;17.50;63.70;;;;;;5075611;28;20223;-66
2021/10/01 00:22:22;;;;;;;1.40;1.13;;;17.50;63.80;;;;;;5075926;28;20221;-68
2021/10/01 00:24:48;;;;;;;2.88;1.10;;;17.50;63.70;;;;;;5075013;28;20170;-68
2021/10/01 00:27:14;;;;;;;1.10;0.90;;;17.50;63.70;;;;;;5075897;28;20202;-68
2021/10/01 00:29:39;;;;;;;1.77;1.30;;;17.50;63.70;;;;;;5075921;28;20177;-66
2021/10/01 00:32:05;;;;;;;2.05;1.05;;;17.50;63.70;;;;;;5074703;28;20201;-66
2021/10/01 00:34:31;;;;;;;1.45;1.15;;;17.50;63.70;;;;;;5075638;28;20191;-66
2021/10/01 00:36:56;;;;;;;1.00;0.85;;;17.50;63.70;;;;;;5075572;28;20206;-67
2021/10/01 00:39:22;;;;;;;1.23;0.90;;;17.50;63.80;;;;;;5074989;28;20178;-67
2021/10/01 00:41:47;;;;;;;1.83;0.95;;;17.50;63.70;;;;;;5075552;28;20220;-68
2021/10/01 00:44:13;;;;;;;2.05;1.20;;;17.50;63.80;;;;;;5075492;28;20182;-68
2021/10/01 00:46:38;;;;;;;2.92;1.33;;;17.50;63.80;;;;;;5074273;28;20170;-67
2021/10/01 00:49:04;;;;;;;1.35;1.10;;;17.50;63.80;;;;;;5074924;28;20252;-67
2021/10/01 00:51:29;;;;;;;2.20;1.20;;;17.50;63.70;;;;;;5075326;28;20166;-66
2021/10/01 00:53:55;;;;;;;1.05;1.05;;;17.50;63.80;;;;;;5073374;28;20578;-66
2021/10/01 00:56:21;;;;;;;1.27;1.10;;;17.50;63.70;;;;;;5075418;28;20261;-66
2021/10/01 00:58:46;;;;;;;1.63;1.10;;;17.50;63.70;;;;;;5075303;28;20205;-66
2021/10/01 01:01:12;;;;;;;2.38;1.05;;;17.50;63.70;;;;;;5074251;28;20167;-67
2021/10/01 01:03:44;;;;;;;1.75;0.90;;;17.50;63.70;;;;;;5075109;28;20223;-67
2021/10/01 01:06:34;;;;;;;1.42;1.00;;;17.50;63.80;;;;;;5074368;28;20181;-67
2021/10/01 01:09:15;;;;;;;2.63;1.00;;;17.50;63.70;;;;;;5073387;28;20802;-67
2021/10/01 01:12:09;;;;;;;1.35;0.90;;;17.40;63.60;;;;;;5073940;28;20217;-65
2021/10/01 01:14:53;;;;;;;1.20;1.10;;;17.40;63.70;;;;;;5074206;28;20656;-65
2021/10/01 01:17:22;;;;;;;1.67;1.15;;;17.40;63.70;;;;;;5075134;28;20206;-66
2021/10/01 01:20:18;;;;;;;1.30;1.10;;;17.50;63.70;;;;;;5057103;28;20543;-66
2021/10/01 01:23:15;;;;;;;0.98;0.95;;;17.40;63.60;;;;;;5074868;28;20235;-67
2021/10/01 01:25:54;;;;;;;1.85;0.88;;;17.40;63.60;;;;;;5059521;28;20182;-67
2021/10/01 01:28:30;;;;;;;1.63;1.08;;;17.50;63.70;;;;;;5073937;28;20210;-66
2021/10/01 01:30:55;;;;;;;2.55;1.05;;;17.40;63.70;;;;;;5057536;28;20197;-65
2021/10/01 01:33:22;;;;;;;1.17;1.00;;;17.40;63.60;;;;;;5073557;28;20210;-66
2021/10/01 01:35:50;;;;;;;0.70;0.70;;;17.40;63.60;;;;;;5072810;28;20185;-66
2021/10/01 01:38:18;;;;;;;1.92;1.23;;;17.40;63.70;;;;;;5056895;28;20606;-67
2021/10/01 01:40:48;;;;;;;1.33;1.13;;;17.40;63.70;;;;;;5073393;28;20249;-67
2021/10/01 01:43:14;;;;;;;2.10;1.02;;;17.40;63.70;;;;;;5072449;28;20181;-67
2021/10/01 01:45:40;;;;;;;1.40;0.90;;;17.40;63.70;;;;;;5073392;28;20171;-68
2021/10/01 01:48:07;;;;;;;1.25;0.88;;;17.40;63.70;;;;;;5056363;28;20224;-67
2021/10/01 01:50:33;;;;;;;1.52;0.90;;;17.40;63.70;;;;;;5073777;28;20174;-67
2021/10/01 01:52:58;;;;;;;1.10;0.90;;;17.40;63.70;;;;;;5073989;28;20586;-66
2021/10/01 01:55:24;;;;;;;1.00;0.90;;;17.40;63.70;;;;;;5055656;28;20268;-66
2021/10/01 01:57:50;;;;;;;1.00;0.85;;;17.40;63.70;;;;;;5071652;28;20668;-65
2021/10/01 02:00:16;;;;;;;0.88;0.88;;;17.40;63.70;;;;;;5073042;28;20186;-66
2021/10/01 02:02:42;;;;;;;0.93;0.90;;;17.40;63.70;;;;;;5072147;28;20182;-67
2021/10/01 02:05:07;;;;;;;1.00;1.00;;;17.40;63.80;;;;;;5072529;28;20257;-66
2021/10/01 02:07:33;;;;;;;1.13;1.02;;;17.40;63.90;;;;;;5056218;28;20213;-67
2021/10/01 02:09:58;;;;;;;1.60;1.00;;;17.40;63.80;;;;;;5071743;28;20586;-66
2021/10/01 02:12:25;;;;;;;1.42;0.93;;;17.40;63.90;;;;;;5073683;28;20202;-66
2021/10/01 02:14:50;;;;;;;0.98;0.95;;;17.40;63.80;;;;;;5055983;28;20281;-65
2021/10/01 02:17:16;;;;;;;1.40;0.95;;;17.40;63.80;;;;;;5073115;28;20693;-65
2021/10/01 02:19:42;;;;;;;1.10;0.90;;;17.40;63.90;;;;;;5072512;28;20236;-66
2021/10/01 02:22:08;;;;;;;0.90;0.68;;;17.40;63.90;;;;;;5072019;28;20198;-66
2021/10/01 02:24:33;;;;;;;1.55;1.00;;;17.40;63.90;;;;;;5072901;28;20269;-67
2021/10/01 02:27:24;;;;;;;1.67;1.02;;;17.40;63.90;;;;;;5072017;28;20198;-67
2021/10/01 02:30:02;;;;;;;1.08;0.90;;;17.40;63.90;;;;;;5058439;28;20277;-65
2021/10/01 02:32:50;;;;;;;1.10;1.10;;;17.40;63.90;;;;;;5071600;28;20260;-66
2021/10/01 02:35:16;;;;;;;0.98;0.82;;;17.40;63.90;;;;;;5072210;28;20179;-65
2021/10/01 02:37:41;;;;;;;1.55;1.15;;;17.40;63.90;;;;;;5072611;28;20182;-66
2021/10/01 02:40:07;;;;;;;1.25;0.85;;;17.40;63.90;;;;;;5071871;28;20261;-67
2021/10/01 02:42:33;;;;;;;0.80;0.80;;;17.30;63.90;;;;;;5073137;28;20266;-67
2021/10/01 02:44:58;;;;;;;1.67;0.98;;;17.40;63.90;;;;;;5072371;28;20210;-68
2021/10/01 02:47:29;;;;;;;0.85;0.80;;;17.40;63.90;;;;;;5073263;28;20293;-67
2021/10/01 02:49:55;;;;;;;1.30;0.90;;;17.30;63.90;;;;;;5073086;28;20182;-67
2021/10/01 02:52:47;;;;;;;0.80;0.80;;;17.30;63.90;;;;;;5071458;28;20186;-66
2021/10/01 02:55:25;;;;;;;1.42;1.10;;;17.30;63.90;;;;;;5072307;28;20175;-66
2021/10/01 02:57:54;;;;;;;2.50;1.05;;;17.30;63.80;;;;;;5056269;28;20223;-66
2021/10/01 03:00:20;;;;;;;1.23;1.02;;;17.30;63.90;;;;;;5054838;28;20186;-67
2021/10/01 03:02:45;;;;;;;1.25;0.65;;;17.30;63.90;;;;;;5071915;28;20167;-66
2021/10/01 03:05:14;;;;;;;1.00;0.80;;;17.30;63.90;;;;;;5055379;28;20171;-68
2021/10/01 03:07:40;;;;;;;0.90;0.75;;;17.30;63.90;;;;;;5054448;28;20210;-67
2021/10/01 03:10:07;;;;;;;1.20;1.10;;;17.30;63.80;;;;;;5072469;28;20181;-66
2021/10/01 03:12:32;;;;;;;1.48;0.85;;;17.30;63.80;;;;;;5055008;28;20546;-65
2021/10/01 03:14:59;;;;;;;1.05;0.80;;;17.30;63.80;;;;;;5070607;28;20178;-65
2021/10/01 03:17:24;;;;;;;2.58;1.13;;;17.30;63.90;;;;;;5073008;28;20198;-65
2021/10/01 03:19:50;;;;;;;1.75;0.85;;;17.40;63.90;;;;;;5072064;28;20741;-66
2021/10/01 03:22:16;;;;;;;1.25;0.90;;;17.30;63.80;;;;;;5054962;28;20566;-66
2021/10/01 03:24:42;;;;;;;1.23;0.80;;;17.30;63.90;;;;;;5055017;28;20183;-67
2021/10/01 03:27:07;;;;;;;1.17;1.08;;;17.30;63.90;;;;;;5070599;28;20224;-67
2021/10/01 03:29:33;;;;;;;1.38;1.10;;;17.30;63.90;;;;;;5055140;28;20166;-66
2021/10/01 03:31:58;;;;;;;1.50;1.00;;;17.30;63.90;;;;;;5071367;28;20170;-65
2021/10/01 03:34:24;;;;;;;1.58;0.95;;;17.30;63.90;;;;;;5054234;28;20170;-65
2021/10/01 03:36:49;;;;;;;1.67;1.10;;;17.30;63.80;;;;;;5072417;28;20220;-67
2021/10/01 03:39:15;;;;;;;1.80;0.90;;;17.30;63.90;;;;;;5072730;28;20243;-67
2021/10/01 03:41:40;;;;;;;1.17;1.02;;;17.30;63.90;;;;;;5072065;28;20621;-66
2021/10/01 03:44:06;;;;;;;1.90;0.90;;;17.30;63.90;;;;;;5072224;28;20174;-66
2021/10/01 03:46:31;;;;;;;1.70;0.90;;;17.30;63.90;;;;;;5072670;28;20175;-66
2021/10/01 03:48:57;;;;;;;1.88;1.00;;;17.30;63.90;;;;;;5071724;28;20217;-66
2021/10/01 03:51:23;;;;;;;1.33;0.90;;;17.30;63.90;;;;;;5072752;28;20166;-67
2021/10/01 03:53:50;;;;;;;1.20;0.80;;;17.30;63.90;;;;;;5072368;28;20634;-66
2021/10/01 03:56:16;;;;;;;1.00;0.80;;;17.30;63.90;;;;;;5071809;28;20175;-66
2021/10/01 03:58:45;;;;;;;1.50;1.17;;;17.30;63.90;;;;;;5072622;28;20584;-66
2021/10/01 04:01:11;;;;;;;1.17;1.08;;;17.30;63.90;;;;;;5072224;28;20181;-67
2021/10/01 04:03:36;;;;;;;0.95;0.70;;;17.30;63.90;;;;;;5071799;28;20174;-66
2021/10/01 04:06:03;;;;;;;1.08;0.98;;;17.30;63.90;;;;;;5071994;28;20194;-67
2021/10/01 04:08:28;;;;;;;1.92;1.10;;;17.30;63.90;;;;;;5072441;28;20206;-67
2021/10/01 04:10:54;;;;;;;1.02;0.70;;;17.30;64.00;;;;;;5071259;28;20178;-66
2021/10/01 04:13:20;;;;;;;1.45;0.82;;;17.20;63.80;;;;;;5072978;28;20210;-65
2021/10/01 04:15:45;;;;;;;1.60;0.98;;;17.20;63.80;;;;;;5072428;28;20180;-65
2021/10/01 04:18:10;;;;;;;1.33;1.00;;;17.30;63.90;;;;;;5071404;28;20181;-66
2021/10/01 04:20:39;;;;;;;1.35;0.77;;;17.30;63.90;;;;;;5072733;28;20169;-66
2021/10/01 04:23:04;;;;;;;1.30;1.08;;;17.20;63.80;;;;;;5074754;28;20256;-67
2021/10/01 04:25:31;;;;;;;1.77;1.00;;;17.20;63.80;;;;;;5075747;28;20179;-67
2021/10/01 04:27:56;;;;;;;2.17;0.90;;;17.30;63.90;;;;;;5075583;28;20218;-66
2021/10/01 04:30:22;;;;;;;1.55;0.90;;;17.20;63.80;;;;;;5075263;28;20200;-66
2021/10/01 04:32:58;;;;;;;1.40;0.80;;;17.20;63.80;;;;;;5075514;28;20269;-65
2021/10/01 04:35:24;;;;;;;1.13;0.80;;;17.20;63.80;;;;;;5075765;28;20633;-66
2021/10/01 04:37:49;;;;;;;1.30;0.85;;;17.30;64.00;;;;;;5074696;28;20166;-67
2021/10/01 04:40:15;;;;;;;0.93;0.88;;;17.20;63.90;;;;;;5075554;28;20578;-67
2021/10/01 04:42:40;;;;;;;1.77;1.00;;;17.30;64.00;;;;;;5075658;28;20220;-68
2021/10/01 04:45:06;;;;;;;2.63;1.15;;;17.20;63.90;;;;;;5074608;28;20178;-67
2021/10/01 04:47:32;;;;;;;0.70;0.70;;;17.20;63.80;;;;;;5075534;28;20203;-68
2021/10/01 04:49:57;;;;;;;1.35;0.90;;;17.20;63.80;;;;;;5075198;28;20541;-67
2021/10/01 04:52:23;;;;;;;1.35;1.00;;;17.20;63.80;;;;;;5074643;28;20625;-67
2021/10/01 04:54:48;;;;;;;2.33;1.13;;;17.20;63.90;;;;;;5074994;28;20515;-66
2021/10/01 04:57:14;;;;;;;1.10;0.95;;;17.20;63.90;;;;;;5075428;28;20175;-66
2021/10/01 04:59:39;;;;;;;1.63;0.88;;;17.20;63.90;;;;;;5074671;28;20621;-67
2021/10/01 05:02:05;;;;;;;1.00;0.75;;;17.20;63.90;;;;;;5074807;28;20185;-68
2021/10/01 05:04:30;;;;;;;1.00;0.77;;;17.20;63.90;;;;;;5075301;28;20581;-67
2021/10/01 05:06:56;;;;;;;0.90;0.80;;;17.20;63.80;;;;;;5074043;28;20597;-68
2021/10/01 05:09:21;;;;;;;0.80;0.80;;;17.20;63.80;;;;;;5074972;28;20210;-67
2021/10/01 05:11:47;;;;;;;1.95;0.90;;;17.20;63.60;;;;;;5075222;28;20178;-65
2021/10/01 05:14:12;;;;;;;1.75;0.90;;;17.30;63.60;;;;;;5074469;28;20177;-65
2021/10/01 05:16:38;;;;;;;1.48;0.60;;;17.40;63.40;;;;;;5074891;28;20284;-65
2021/10/01 05:19:03;;;;;;;1.10;0.73;;;17.40;63.40;;;;;;5074611;28;20506;-66
2021/10/01 05:21:29;;;;;;;1.30;1.00;;;17.50;63.20;;;;;;5074364;28;20196;-67
2021/10/01 05:23:54;;;;;;;2.58;1.20;;;17.60;63.10;;;;;;5074202;28;20222;-67
2021/10/01 05:26:20;;;;;;;1.05;0.80;;;17.70;63.00;;;;;;5073869;28;20657;-68
2021/10/01 05:28:45;;;;;;;1.23;0.80;;;17.80;63.60;;;;;;5074821;28;20207;-66
2021/10/01 05:31:11;;;;;;;0.80;0.70;;;17.90;62.70;;;;;;5074450;28;20182;-66
2021/10/01 05:33:36;;;;;;;2.22;0.77;;;18.10;62.50;;;;;;5074062;28;20170;-67
2021/10/01 05:36:02;;;;;;;0.77;0.73;;;18.20;62.10;;;;;;5074270;28;20197;-66
2021/10/01 05:38:29;;;;;;;1.63;0.70;;;18.30;61.90;;;;;;5074384;28;20582;-68
2021/10/01 05:40:55;;;;;;;2.63;0.85;;;18.40;61.70;;;;;;5073500;28;20245;-67
2021/10/01 05:43:24;;;;;;;1.67;0.85;;;18.50;61.60;;;;;;5074440;28;20581;-68
2021/10/01 05:45:53;;;;;;;1.15;0.70;;;18.60;61.20;;;;;;5074256;28;20178;-69
2021/10/01 05:48:19;;;;;;;0.68;0.68;;;18.70;60.80;;;;;;5073682;28;20237;-68
2021/10/01 05:50:52;;;;;;;0.65;0.60;;;18.80;60.50;;;;;;5074395;28;20236;-68
2021/10/01 05:53:36;;;;;;;1.13;0.80;;;18.80;60.20;;;;;;5074930;28;20174;-67
2021/10/01 05:56:02;;;;;;;1.52;0.90;;;18.90;60.30;;;;;;5073248;28;20638;-67
2021/10/01 05:58:28;;;;;;;0.70;0.70;;;18.80;60.30;;;;;;5074298;28;20206;-68
2021/10/01 06:00:53;;;;;;;1.48;0.70;;;18.80;60.40;;;;;;5072545;28;20201;-65
2021/10/01 06:03:19;;;;;;;0.90;0.70;;;18.70;60.70;;;;;;5073286;28;20512;-67
2021/10/01 06:05:44;;;;;;;0.70;0.70;;;18.70;60.90;;;;;;5073818;28;20167;-69
2021/10/01 06:08:10;;;;;;;1.05;0.80;;;18.60;61.10;;;;;;5073545;28;20387;-68
2021/10/01 06:10:36;;;;;;;1.52;0.60;;;18.50;61.30;;;;;;5073167;28;20617;-68
2021/10/01 06:13:02;;;;;;;1.10;0.85;;;18.40;62.20;;;;;;5073600;28;20182;-66
2021/10/01 06:15:27;;;;;;;2.05;0.82;;;18.40;61.60;;;;;;5073909;28;20182;-66
2021/10/01 06:17:53;;;;;;;1.08;0.70;;;18.40;61.70;;;;;;5072693;28;20171;-67
2021/10/01 06:20:18;;;;;;;1.20;0.57;;;18.30;61.80;;;;;;5073727;28;20186;-67
2021/10/01 06:22:44;;;;;;;0.77;0.60;;;18.30;61.90;;;;;;5072889;28;20272;-68
2021/10/01 06:25:09;;;;;;;1.60;1.00;;;18.20;62.00;;;;;;5073215;28;20228;-68
2021/10/01 06:27:35;;;;;;;1.05;0.70;;;18.20;62.20;;;;;;5073659;28;20207;-68
2021/10/01 06:30:02;;;;;;;0.85;0.73;;;18.10;62.20;;;;;;5072645;28;20203;-67
2021/10/01 06:32:34;;;;;;;0.88;0.60;;;18.10;62.30;;;;;;5073389;28;20184;-66
2021/10/01 06:34:59;;;;;;;1.20;0.80;;;18.10;62.40;;;;;;5073124;28;20181;-67
2021/10/01 06:37:25;;;;;;;0.60;0.60;;;18.00;62.40;;;;;;5072865;28;20174;-68
2021/10/01 06:39:50;;;;;;;1.98;0.82;;;18.00;62.40;;;;;;5072952;28;20174;-68
2021/10/01 06:42:17;;;;;;;1.17;0.68;;;17.90;62.40;;;;;;5073398;28;20718;-69
2021/10/01 06:44:46;;;;;;;1.67;0.80;;;18.00;62.50;;;;;;5072156;28;20198;-68
2021/10/01 06:47:17;;;;;;;1.95;0.85;;;17.90;62.60;;;;;;5073106;28;20261;-68
2021/10/01 06:50:10;;;;;;;1.10;0.50;;;17.90;62.50;;;;;;5073128;28;20637;-68
2021/10/01 07:23:06;;;;;;;1.25;0.55;;;18.00;62.20;;;;;;5050675;28;20242;-68
2021/10/01 07:29:41;;;;;;;1.95;0.70;;;18.00;62.30;;;;;;5071612;28;20209;-67
2021/10/01 08:20:23;;;;;;;3.05;1.10;;;18.10;62.30;;;;;;5076192;28;20639;-68
2021/10/01 08:22:48;;;;;;;3.30;1.10;;;18.10;62.40;;;;;;5074727;28;20700;-68
2021/10/01 08:25:14;;;;;;;1.77;1.15;;;18.10;62.40;;;;;;5075924;28;20261;-68
2021/10/01 08:27:40;;;;;;;2.22;1.00;;;18.10;62.50;;;;;;5075976;28;20202;-68
2021/10/01 08:30:06;;;;;;;4.60;1.00;;;18.10;62.70;;;;;;5074995;28;20197;-68
2021/10/01 08:32:31;;;;;;;4.03;1.33;;;18.10;62.40;;;;;;5075971;28;20252;-68
2021/10/01 08:34:57;;;;;;;4.63;1.27;;;18.10;62.40;;;;;;5075520;28;20170;-70
2021/10/01 08:37:22;;;;;;;3.05;0.98;;;18.10;62.70;;;;;;5074962;28;20196;-68
2021/10/01 08:39:48;;;;;;;4.45;1.20;;;18.10;62.80;;;;;;5075289;28;20702;-69
2021/10/01 08:42:14;;;;;;;4.40;1.17;;;18.10;62.90;;;;;;5075732;28;20174;-69
2021/10/01 08:44:39;;;;;;;3.55;1.08;;;18.10;63.00;;;;;;5057182;28;20219;-69
2021/10/01 08:47:05;;;;;;;2.47;1.08;;;18.10;63.00;;;;;;5074187;28;20202;-70
2021/10/01 08:49:31;;;;;;;4.45;1.75;;;18.00;63.00;;;;;;5075417;28;20279;-68
2021/10/01 08:51:56;;;;;;;2.28;0.90;;;18.00;63.20;;;;;;5074446;28;20261;-69
2021/10/01 08:54:23;;;;;;;4.35;1.20;;;18.00;63.30;;;;;;5075323;28;20262;-69
2021/10/01 08:56:49;;;;;;;4.00;1.27;;;18.00;63.30;;;;;;5075319;28;20201;-68
2021/10/01 08:59:14;;;;;;;2.15;1.13;;;18.00;63.30;;;;;;5074618;28;20250;-68
2021/10/01 09:01:40;;;;;;;4.97;1.10;;;18.00;63.40;;;;;;5074200;28;20170;-68
2021/10/01 09:04:07;;;;;;;3.30;1.00;;;18.00;63.40;;;;;;5075078;28;20175;-68
2021/10/01 09:06:32;;;;;;;2.00;1.17;;;18.00;63.40;;;;;;5074094;28;20186;-70
2021/10/01 09:09:04;;;;;;;3.13;1.13;;;18.00;63.40;;;;;;5074798;28;20214;-68
2021/10/01 09:11:33;;;;;;;2.17;0.95;;;17.90;63.50;;;;;;5074634;28;20182;-69
2021/10/01 09:14:07;;;;;;;2.20;1.23;;;18.00;63.50;;;;;;5074715;28;20652;-69
2021/10/01 09:16:33;;;;;;;4.32;1.13;;;18.00;63.50;;;;;;5075050;28;20180;-71
2021/10/01 09:18:59;;;;;;;4.32;0.90;;;18.10;63.50;;;;;;5074020;28;20212;-70
2021/10/01 09:21:25;;;;;;;4.85;1.05;;;18.00;63.40;;;;;;5074857;28;20174;-65
2021/10/01 09:24:03;;;;;;;6.43;1.02;;;18.10;63.30;;;;;;5074517;28;20736;-65
2021/10/01 09:26:29;;;;;;;2.95;0.98;;;18.10;63.30;;;;;;5074381;28;20174;-67
2021/10/01 09:28:55;;;;;;;2.83;1.10;;;18.10;63.20;;;;;;5074432;28;20206;-74
2021/10/01 09:31:32;;;;;;;2.97;1.13;;;18.10;63.20;;;;;;5074873;28;20183;-70
2021/10/01 09:33:58;;;;;;;2.50;1.20;;;18.10;63.20;;;;;;5073577;28;20189;-73
2021/10/01 09:36:25;;;;;;;4.35;1.33;;;18.10;63.50;;;;;;5074783;28;20170;-75
2021/10/01 09:38:51;;;;;;;4.15;1.25;;;18.10;63.70;;;;;;5074237;28;20611;-75
2021/10/01 09:41:22;;;;;;;2.67;1.10;;;18.10;63.90;;;;;;5073846;28;20309;-72
2021/10/01 09:43:56;;;;;;;3.75;1.25;;;18.10;64.00;;;;;;5073892;28;20228;-75
2021/10/01 09:46:22;;;;;;;3.53;1.15;;;18.10;64.10;;;;;;5072714;28;20545;-74
2021/10/01 09:48:47;;;;;;;2.05;0.98;;;18.10;63.90;;;;;;5055276;28;20206;-74
2021/10/01 09:51:17;;;;;;;2.75;1.02;;;18.20;63.70;;;;;;5073778;28;20167;-72
2021/10/01 09:53:50;;;;;;;3.45;1.13;;;18.20;64.60;;;;;;5073297;28;20181;-72
2021/10/01 09:56:23;;;;;;;4.22;1.20;;;18.20;64.00;;;;;;5074273;28;20228;-66
2021/10/01 09:59:08;;;;;;;3.33;1.40;;;18.20;63.80;;;;;;5073438;28;20179;-66
2021/10/01 10:01:34;;;;;;;2.58;0.90;;;18.20;63.90;;;;;;5063406;28;20179;-65
2021/10/01 10:04:12;;;;;;;5.13;1.10;;;18.20;63.90;;;;;;5057077;28;20198;-66
2021/10/01 10:06:45;;;;;;;5.60;1.80;;;18.20;63.80;;;;;;5074246;28;20205;-66
2021/10/01 10:09:10;;;;;;;3.30;1.23;;;18.20;63.70;;;;;;5061831;28;20199;-66
2021/10/01 10:11:42;;;;;;;1.52;1.10;;;18.20;63.70;;;;;;5053817;28;20618;-66
2021/10/01 10:14:11;;;;;;;3.50;1.08;;;18.20;63.80;;;;;;5053341;28;20266;-65
2021/10/01 10:16:37;;;;;;;2.80;1.30;;;18.20;63.70;;;;;;5054783;28;20167;-66
2021/10/01 10:19:09;;;;;;;6.03;1.00;;;18.30;63.80;;;;;;5072649;28;20186;-67
2021/10/01 10:21:35;;;;;;;1.30;0.88;;;18.30;63.60;;;;;;5073894;28;20177;-66
2021/10/01 10:24:01;;;;;;;2.28;1.15;;;18.40;63.50;;;;;;5072442;28;20771;-66
2021/10/01 10:26:26;;;;;;;2.60;1.00;;;18.40;63.30;;;;;;5073825;28;20173;-65
2021/10/01 10:28:54;;;;;;;1.95;1.13;;;18.40;63.30;;;;;;5072601;28;20210;-65
2021/10/01 10:31:19;;;;;;;2.85;0.90;;;18.40;63.40;;;;;;5072498;28;20174;-66
2021/10/01 10:33:49;;;;;;;3.88;1.05;;;18.40;63.50;;;;;;5071208;28;20228;-65
2021/10/01 10:36:33;;;;;;;1.75;0.80;;;18.40;63.50;;;;;;5052736;28;20176;-65
2021/10/01 10:39:10;;;;;;;2.45;0.70;;;18.40;63.60;;;;;;5053297;28;20171;-67
2021/10/01 10:41:40;;;;;;;3.25;1.13;;;18.50;63.60;;;;;;5053569;28;20175;-66
2021/10/01 10:44:06;;;;;;;4.63;0.77;;;18.50;63.30;;;;;;5052350;28;20226;-68
2021/10/01 10:46:34;;;;;;;2.75;0.90;;;18.60;63.30;;;;;;5053260;28;20572;-66
2021/10/01 10:49:24;;;;;;;4.00;0.98;;;18.60;63.30;;;;;;5052742;28;20340;-66
2021/10/01 10:52:18;;;;;;;3.88;1.05;;;18.60;63.20;;;;;;5052332;28;20614;-66
2021/10/01 10:54:51;;;;;;;4.03;0.98;;;18.60;63.40;;;;;;5053204;28;20232;-65
2021/10/01 10:57:27;;;;;;;2.72;1.02;;;18.60;63.30;;;;;;5052561;28;20639;-66
2021/10/01 10:59:59;;;;;;;6.93;2.05;;;18.60;63.40;;;;;;5053464;28;20266;-65
2021/10/01 11:02:41;;;;;;;3.70;1.13;;;18.60;63.40;;;;;;5052158;28;20537;-65
2021/10/01 11:05:17;;;;;;;3.53;1.15;;;18.60;63.50;;;;;;5051621;28;20720;-76
2021/10/01 11:07:48;;;;;;;3.22;1.10;;;18.60;63.50;;;;;;5053856;28;20258;-77
2021/10/01 11:10:46;;;;;;;2.78;1.02;;;18.60;63.50;;;;;;5073075;28;20178;-75
2021/10/01 11:13:23;;;;;;;4.80;1.40;;;18.60;63.60;;;;;;5072113;28;20188;-64
2021/10/01 11:16:16;;;;;;;2.03;0.93;;;18.70;63.50;;;;;;5072643;28;20170;-63
2021/10/01 11:18:47;;;;;;;3.30;1.30;;;18.70;63.50;;;;;;5072366;28;20167;-63
2021/10/01 11:21:29;;;;;;;3.85;1.20;;;18.70;63.60;;;;;;5072948;28;20596;-64
2021/10/01 11:24:17;;;;;;;2.08;1.05;;;18.60;63.60;;;;;;5072350;28;20234;-64
2021/10/01 11:26:55;;;;;;;5.45;1.30;;;18.60;63.60;;;;;;5072190;28;20185;-64
2021/10/01 11:29:32;;;;;;;3.95;1.40;;;18.60;63.70;;;;;;5073107;28;20218;-65
2021/10/01 11:32:04;;;;;;;5.55;1.50;;;18.60;63.60;;;;;;5079308;28;20250;-65
2021/10/01 11:34:43;;;;;;;3.65;1.73;;;18.60;63.60;;;;;;5079405;28;20174;-65
2021/10/01 11:37:33;;;;;;;5.85;1.10;;;18.60;63.50;;;;;;5079313;28;20185;-65
2021/10/01 11:40:09;;;;;;;2.33;1.10;;;18.60;63.40;;;;;;5078454;28;20178;-66
2021/10/01 11:42:37;;;;;;;2.30;1.13;;;18.70;63.20;;;;;;5077985;28;20580;-66
2021/10/01 11:45:25;;;;;;;4.13;1.40;;;18.80;63.00;;;;;;5078995;28;20270;-66
2021/10/01 11:48:07;;;;;;;3.40;1.25;;;18.80;63.10;;;;;;5078280;28;20208;-66
2021/10/01 11:50:35;;;;;;;4.90;1.30;;;18.80;62.90;;;;;;5079562;28;20178;-65
2021/10/01 11:53:02;;;;;;;1.92;0.90;;;18.80;62.90;;;;;;5078968;28;20178;-70
2021/10/01 11:55:29;;;;;;;5.05;1.20;;;18.90;62.80;;;;;;5078471;28;20244;-68
2021/10/01 11:57:54;;;;;;;3.55;1.10;;;18.80;62.90;;;;;;5078774;28;20181;-69
2021/10/01 12:00:22;;;;;;;3.80;1.30;;;18.80;63.10;;;;;;5078532;28;20653;-71
2021/10/01 12:02:49;;;;;;;3.30;1.45;;;18.70;63.20;;;;;;5079045;28;20626;-71
2021/10/01 12:05:32;;;;;;;2.42;0.98;;;18.70;63.30;;;;;;5079062;28;20561;-71
2021/10/01 12:08:00;;;;;;;6.90;1.58;;;18.70;63.40;;;;;;5074964;28;20197;-70
2021/10/01 12:10:27;;;;;;;5.15;1.55;;;18.60;63.30;;;;;;5058907;28;20553;-69
2021/10/01 12:13:16;;;;;;;2.53;1.08;;;18.60;63.40;;;;;;5058734;28;20175;-69
2021/10/01 12:15:51;;;;;;;3.88;1.45;;;18.60;63.40;;;;;;5058261;28;20672;-69
2021/10/01 12:18:30;;;;;;;3.22;1.02;;;18.60;64.40;;;;;;5058909;28;20228;-70
2021/10/01 12:20:56;;;;;;;5.20;1.20;;;18.50;63.50;;;;;;5058513;28;20652;-71
2021/10/01 12:23:27;;;;;;;3.83;0.98;;;18.60;63.50;;;;;;5058066;28;20234;-69
2021/10/01 12:25:53;;;;;;;2.08;1.00;;;18.60;63.50;;;;;;5058413;28;20580;-70
2021/10/01 12:28:19;;;;;;;2.13;1.30;;;18.60;63.50;;;;;;5056853;28;20237;-69
2021/10/01 12:30:45;;;;;;;3.47;1.17;;;18.60;63.50;;;;;;5058876;28;20199;-68
2021/10/01 12:33:11;;;;;;;2.40;1.00;;;18.50;63.50;;;;;;5058533;28;20174;-70
2021/10/01 12:35:37;;;;;;;2.55;1.10;;;18.50;63.50;;;;;;5058258;28;20229;-69
2021/10/01 12:38:02;;;;;;;2.35;1.15;;;18.60;63.50;;;;;;5057370;28;20167;-70
2021/10/01 12:40:28;;;;;;;2.72;1.20;;;18.50;63.40;;;;;;5058597;28;20179;-71
2021/10/01 12:42:53;;;;;;;1.33;0.88;;;18.50;63.40;;;;;;5054235;28;20254;-71
2021/10/01 12:45:19;;;;;;;3.55;1.10;;;18.60;63.40;;;;;;5055711;28;20175;-71
2021/10/01 12:47:46;;;;;;;3.63;1.25;;;18.50;63.30;;;;;;5055362;28;20183;-70
2021/10/01 12:50:16;;;;;;;1.55;0.95;;;18.60;63.30;;;;;;5054599;28;20228;-71
2021/10/01 12:52:44;;;;;;;1.73;0.70;;;18.70;63.20;;;;;;5055573;28;20233;-70
2021/10/01 12:55:13;;;;;;;2.00;1.30;;;18.70;62.90;;;;;;5055057;28;20317;-70
2021/10/01 12:57:40;;;;;;;3.05;1.15;;;18.60;63.00;;;;;;5054708;28;20641;-70
2021/10/01 13:00:05;;;;;;;1.88;1.00;;;18.70;63.10;;;;;;5054940;28;20297;-70
2021/10/01 13:02:34;;;;;;;2.67;0.80;;;18.70;63.10;;;;;;5055360;28;20262;-72
2021/10/01 13:04:59;;;;;;;2.85;1.10;;;18.70;63.10;;;;;;5054212;28;20171;-69
2021/10/01 13:07:34;;;;;;;2.45;1.10;;;18.60;63.00;;;;;;5055199;28;20668;-70
2021/10/01 13:10:15;;;;;;;1.55;1.10;;;18.60;62.90;;;;;;5074703;28;20682;-70
2021/10/01 13:13:14;;;;;;;3.10;1.40;;;18.60;62.90;;;;;;5074185;28;20170;-68
2021/10/01 13:15:47;;;;;;;1.80;0.93;;;18.60;63.00;;;;;;5062880;28;20182;-69
2021/10/01 13:18:20;;;;;;;2.70;1.00;;;18.60;62.90;;;;;;5074116;28;20707;-69
2021/10/01 13:20:54;;;;;;;1.92;1.23;;;18.60;62.90;;;;;;5075125;28;20170;-70
2021/10/01 13:23:46;;;;;;;3.00;1.10;;;18.70;62.80;;;;;;5074809;28;20222;-70
2021/10/01 13:26:18;;;;;;;3.17;1.00;;;18.70;62.80;;;;;;5073812;28;20178;-69
2021/10/01 13:28:46;;;;;;;3.58;1.23;;;18.60;62.90;;;;;;5074914;28;20285;-69
2021/10/01 13:31:11;;;;;;;2.25;0.88;;;18.60;62.90;;;;;;5074425;28;20253;-68
2021/10/01 13:33:37;;;;;;;2.67;1.10;;;18.60;62.90;;;;;;5072923;28;20606;-68
2021/10/01 13:36:02;;;;;;;2.55;0.98;;;18.60;63.00;;;;;;5074307;28;20600;-69
2021/10/01 13:38:35;;;;;;;1.98;0.80;;;18.50;62.90;;;;;;5074803;28;20262;-71
2021/10/01 13:41:05;;;;;;;1.10;0.93;;;18.60;63.00;;;;;;5073916;28;20178;-70
2021/10/01 13:43:30;;;;;;;1.92;0.90;;;18.50;63.00;;;;;;5074524;28;20625;-71
2021/10/01 13:45:56;;;;;;;1.83;1.17;;;18.50;63.00;;;;;;5078122;28;20274;-72
2021/10/01 13:48:22;;;;;;;2.22;1.10;;;18.50;63.00;;;;;;5076768;28;20279;-71
2021/10/01 13:50:48;;;;;;;3.05;1.10;;;18.50;63.10;;;;;;5074191;28;20198;-71
2021/10/01 13:53:14;;;;;;;6.30;1.33;;;18.50;63.20;;;;;;5071410;28;20201;-69
2021/10/01 13:55:39;;;;;;;5.30;1.50;;;18.50;63.10;;;;;;5074149;28;20653;-70
2021/10/01 13:58:05;;;;;;;3.88;0.93;;;18.50;63.00;;;;;;5074152;28;20633;-70
2021/10/01 14:00:30;;;;;;;3.20;0.90;;;18.50;63.10;;;;;;5056772;28;20172;-70
2021/10/01 14:02:56;;;;;;;2.85;1.05;;;18.60;63.10;;;;;;5053136;28;20178;-72
2021/10/01 14:05:21;;;;;;;3.38;1.55;;;18.50;63.10;;;;;;5052600;28;20202;-71
2021/10/01 14:07:47;;;;;;;3.53;1.02;;;18.50;63.00;;;;;;5052402;28;20177;-72
2021/10/01 14:10:16;;;;;;;2.42;1.30;;;18.60;63.10;;;;;;5053520;28;20198;-72
2021/10/01 14:12:41;;;;;;;3.45;1.30;;;18.60;63.00;;;;;;5053882;28;20255;-72
2021/10/01 14:15:07;;;;;;;3.95;0.85;;;18.60;63.00;;;;;;5052663;28;20202;-71
2021/10/01 14:17:33;;;;;;;2.67;1.25;;;18.50;63.00;;;;;;5053995;28;20513;-70
2021/10/01 14:19:58;;;;;;;1.83;1.35;;;18.60;63.00;;;;;;5053643;28;20171;-69